Lancaster, OH (43130)

6:54 PM EDT on October 30, 2014 (GMT -0400)
OHDOT 12-US-33 @ SR793 | Change Station
CLOSE
Current Station
Personal Weather Station
Location: Lancaster, OH
Elevation: 1035 ft
Nearby Weather Stations
Active Advisory: Freeze Watch

Elev 1035 ft 39.67 °N, 82.62 °W | Updated 23 minutes ago

Overcast
Overcast
49 °F
Feels Like 49 °F
N
1
Wind Variable Wind from North
Gusts 1.0 mph

Today
High -- | Low -- °F
--% Chance of Precip.
Yesterday
High -- | Low -- °F
Precip. -- in
7:56 AM 6:30 PM
Waxing Crescent, 48% visible
Pressure 30.10 in
Visibility 10.0 miles
Clouds Overcast 4100 ft
Windchill 49 °F
Dew Point 34 °F
Humidity 55%
Rainfall -999.00 in
Snow Depth Not available.
UV 0 out of 12
Pollen .20 out of 12
Air Quality Not available.
Flu Activity Not available.
METAR KLHQ 302153Z AUTO 00000KT 10SM OVC041 09/01 A3009 RMK AO2 SLP192 T00940011

More Conditions Fewer Conditions

Pressure 30.10 in
Visibility 10.0 miles
Clouds Overcast 4100 ft
Windchill 49 °F
Dew Point 34 °F
Humidity 55%
Rainfall -999.00 in
Snow Depth Not available.
UV 0 out of 12
Pollen .20 out of 12
Air Quality Not available.
Flu Activity Not available.
METAR KLHQ 302153Z AUTO 00000KT 10SM OVC041 09/01 A3009 RMK AO2 SLP192 T00940011

More Conditions Fewer Conditions

10-Day Weather Forecast

Almanac

Astronomy

Oct. 30, 2014 Rise Set
Actual Time
Civil Twilight
Nautical Twilight
Astronomical Twilight
Moon
Length of Visible Light
Length of Day
Tomorrow will be .
, % of the Moon is Illuminated

Today's Extremes

State Highs State Lows

Community

WunderPhotos

Upload Photos

1,766,488 photos uploaded!

WunderBlogs® & News

Nearby

Air Quality

  Air Quality AQ Index Pollutant
Not available.

Snow Depth

Station Depth Elevation

Earthquake Activity

City Distance Mag. Time & Date
Minimum magnitude displayed is 2.5.

Coastal Water Temperatures

Place Temperature

Nearby Weather Stations